createdAt,value
2018-09-10T00:01:05.252Z,15.60
2018-09-10T00:03:36.066Z,19.93
2018-09-10T13:53:28.529Z,11.90
2018-09-10T13:55:59.300Z,10.27
2018-09-10T13:58:29.977Z,10.00
2018-09-10T14:01:00.748Z,12.00
2018-09-10T14:03:31.356Z,11.43
2018-09-10T14:06:03.285Z,7.83
2018-09-10T14:08:33.977Z,8.57
2018-09-10T14:11:06.507Z,9.60
2018-09-10T14:13:37.302Z,6.97
2018-09-10T14:16:09.061Z,9.00
2018-09-10T14:18:39.728Z,6.43
2018-09-10T14:21:11.218Z,7.33
2018-09-10T14:23:41.937Z,16.87
2018-09-10T14:26:13.374Z,13.43
2018-09-10T14:28:44.612Z,7.53
2018-09-10T14:31:16.543Z,7.13
2018-09-10T14:33:47.227Z,10.83
2018-09-10T14:36:18.061Z,9.77
2018-09-10T14:38:49.052Z,13.37
2018-09-10T14:41:19.733Z,7.70
2018-09-10T14:43:50.585Z,10.27
2018-09-10T14:46:21.321Z,8.73
2018-09-10T14:48:52.295Z,20.03
2018-09-10T14:51:23.030Z,16.80
2018-09-10T14:53:54.077Z,7.23
2018-09-10T14:56:24.767Z,14.47
2018-09-10T14:58:55.438Z,7.60
2018-09-10T15:01:26.204Z,10.27
2018-09-10T15:03:56.859Z,11.50
2018-09-10T15:07:52.859Z,9.07
2018-09-10T15:10:23.542Z,8.73
2018-09-10T15:12:54.296Z,10.77
2018-09-10T15:15:25.017Z,7.53
2018-09-10T15:17:55.814Z,12.63
2018-09-10T15:20:27.280Z,19.77
2018-09-10T15:22:58.005Z,10.43
2018-09-10T15:25:28.825Z,8.23
2018-09-10T15:27:59.516Z,7.83
2018-09-10T15:30:30.610Z,15.10
2018-09-10T15:33:01.341Z,7.60
2018-09-10T15:35:32.028Z,10.33
2018-09-10T15:38:03.141Z,15.07
2018-09-10T15:40:33.899Z,8.80
2018-09-10T15:43:05.769Z,8.43
2018-09-10T15:45:37.137Z,12.40
2018-09-10T15:48:07.855Z,8.13
2018-09-10T15:50:38.538Z,17.77
2018-09-10T15:53:09.228Z,14.33
2018-09-10T15:55:40.208Z,11.47
2018-09-10T15:58:10.979Z,8.17
2018-09-10T16:00:41.709Z,9.83
2018-09-10T16:03:12.447Z,8.47
2018-09-10T16:05:43.084Z,10.83
2018-09-10T16:08:13.933Z,11.13
2018-09-10T16:10:44.609Z,13.20
2018-09-10T16:13:15.344Z,15.20
2018-09-10T16:15:46.002Z,13.33
2018-09-10T16:18:17.013Z,9.43
2018-09-10T16:20:47.734Z,10.27
2018-09-10T16:23:18.396Z,11.83
2018-09-10T16:25:49.330Z,11.40
2018-09-10T16:28:20.231Z,23.20
2018-09-10T16:30:50.876Z,13.70
2018-09-10T16:33:21.703Z,9.07
2018-09-10T16:35:52.354Z,12.60
2018-09-10T16:38:23.837Z,11.43
2018-09-10T16:40:54.467Z,11.47
2018-09-10T16:43:25.496Z,11.00
2018-09-10T16:45:56.137Z,11.63
2018-09-10T16:48:27.474Z,9.43
2018-09-10T16:50:58.912Z,12.80
2018-09-10T16:53:30.639Z,13.10
2018-09-10T16:56:02.316Z,10.20
2018-09-10T16:58:33.006Z,10.83
2018-09-10T17:01:03.667Z,9.13
2018-09-10T17:03:34.473Z,12.03
2018-09-10T17:06:05.644Z,7.57
2018-09-10T17:08:36.558Z,14.67
2018-09-10T17:11:07.238Z,41.50
2018-09-10T17:13:37.967Z,32.43
2018-09-10T17:16:08.645Z,26.00
2018-09-10T17:18:39.916Z,23.20
2018-09-10T17:21:10.565Z,19.87
2018-09-10T17:23:41.245Z,33.27
2018-09-10T17:26:12.977Z,40.93
2018-09-10T17:28:45.727Z,33.13
2018-09-10T17:31:16.463Z,34.33
2018-09-10T17:33:47.335Z,26.67
2018-09-10T17:36:18.265Z,19.93
2018-09-10T17:38:49.057Z,23.70
2018-09-10T17:41:19.802Z,22.80
2018-09-10T17:43:50.914Z,21.57
2018-09-10T17:46:21.555Z,16.20
2018-09-10T17:48:52.770Z,14.87
2018-09-10T17:51:24.248Z,13.20
2018-09-10T17:53:55.107Z,14.23
2018-09-10T17:56:25.810Z,10.43
2018-09-10T17:58:56.552Z,9.00
2018-09-10T18:01:27.305Z,8.00
2018-09-10T18:03:58.986Z,7.70
2018-09-10T18:06:30.432Z,11.60
2018-09-10T18:09:01.139Z,9.10
2018-09-10T18:11:31.804Z,7.23
2018-09-10T18:14:02.502Z,7.63
2018-09-10T18:16:33.361Z,7.20
2018-09-10T18:19:04.088Z,23.63
2018-09-10T18:21:35.469Z,11.33
2018-09-10T18:24:06.304Z,6.93
2018-09-10T18:26:37.028Z,8.30
2018-09-10T18:29:07.711Z,9.33
2018-09-10T18:31:38.349Z,11.67
2018-09-10T18:34:09.420Z,8.27
2018-09-10T18:36:41.254Z,8.57
2018-09-10T18:39:13.337Z,7.27
2018-09-10T18:41:45.100Z,7.40
2018-09-10T18:44:15.794Z,7.43
2018-09-10T18:46:46.829Z,8.43
2018-09-10T18:49:17.579Z,8.97
2018-09-10T18:51:48.533Z,12.73
2018-09-10T18:54:19.228Z,8.07
2018-09-10T18:56:49.865Z,8.20
2018-09-10T18:59:20.680Z,9.37
2018-09-10T19:01:51.341Z,13.50
2018-09-10T19:04:22.129Z,7.73
2018-09-10T19:06:52.792Z,7.07
2018-09-10T19:09:23.486Z,6.80
2018-09-10T19:11:54.111Z,10.40
2018-09-10T19:14:25.061Z,9.83
2018-09-10T19:16:55.779Z,6.30
2018-09-10T19:19:27.355Z,10.27
2018-09-10T19:21:58.613Z,10.30
2018-09-10T19:24:29.284Z,17.67
2018-09-10T19:27:00.027Z,16.37
2018-09-10T19:29:31.341Z,11.00
2018-09-10T19:32:02.001Z,9.97
2018-09-10T19:34:33.017Z,6.53
2018-09-10T19:37:03.717Z,8.80
2018-09-10T19:39:34.474Z,9.57
2018-09-10T19:42:05.153Z,12.37
2018-09-10T19:44:36.570Z,9.07
2018-09-10T19:47:08.268Z,9.33
2018-09-10T19:49:39.374Z,9.13
2018-09-10T19:52:10.022Z,8.00
2018-09-10T19:54:41.805Z,7.70
2018-09-10T19:57:12.461Z,8.87
2018-09-10T19:59:43.191Z,7.57
2018-09-10T20:02:13.855Z,8.20
2018-09-10T20:04:44.603Z,7.97
2018-09-10T20:07:16.511Z,8.97
2018-09-10T20:09:47.302Z,8.00
2018-09-10T20:12:22.578Z,9.63
2018-09-10T20:14:53.287Z,10.37
2018-09-10T20:17:23.961Z,9.73
2018-09-10T20:20:07.270Z,10.57
2018-09-10T20:22:38.151Z,11.50
2018-09-10T20:25:08.885Z,9.10
2018-09-10T20:27:39.773Z,10.67
2018-09-10T20:30:10.582Z,11.03
2018-09-10T20:32:41.747Z,15.30
2018-09-10T20:35:12.753Z,17.47
2018-09-10T20:37:43.548Z,11.87
2018-09-10T20:40:14.246Z,11.47
2018-09-10T20:42:44.959Z,11.73
2018-09-10T20:45:15.666Z,11.00
2018-09-10T20:47:46.309Z,11.60
2018-09-10T20:50:17.324Z,12.13
2018-09-10T20:52:47.995Z,10.63
2018-09-10T20:55:18.761Z,10.70
2018-09-10T20:57:49.595Z,9.97
2018-09-10T21:00:20.262Z,9.13
2018-09-10T21:02:51.129Z,8.37
2018-09-10T21:05:24.716Z,8.70
2018-09-10T21:07:55.397Z,8.53
2018-09-10T21:10:26.672Z,9.67
2018-09-10T21:12:58.234Z,9.67
2018-09-10T21:15:29.537Z,8.80
2018-09-10T21:18:00.202Z,10.27
2018-09-10T21:20:32.283Z,11.63
2018-09-10T21:23:03.424Z,9.60
2018-09-10T21:25:34.163Z,10.63
2018-09-10T21:28:08.045Z,9.93
2018-09-10T21:30:38.708Z,8.77
2018-09-10T21:33:09.355Z,9.47
2018-09-10T21:35:40.531Z,9.30
2018-09-10T21:38:11.788Z,10.53
2018-09-10T21:40:42.428Z,9.67
2018-09-10T21:43:13.137Z,9.63
2018-09-10T21:45:43.800Z,8.03
2018-09-10T21:48:14.497Z,10.10
2018-09-10T21:50:48.639Z,7.63
2018-09-10T21:53:19.269Z,11.53
2018-09-10T21:55:49.931Z,8.93
2018-09-10T21:58:20.741Z,12.73
2018-09-10T22:00:55.917Z,10.20
2018-09-10T22:03:27.078Z,9.27
2018-09-10T22:05:57.836Z,10.90
2018-09-10T22:08:28.502Z,14.47
2018-09-10T22:10:59.239Z,24.27
2018-09-10T22:13:30.082Z,13.47
2018-09-10T22:16:00.762Z,18.20
2018-09-10T22:18:31.421Z,22.87
2018-09-10T22:21:02.378Z,21.90
2018-09-10T22:23:33.625Z,19.87
2018-09-10T22:26:04.297Z,16.60
2018-09-10T22:28:35.010Z,14.33
2018-09-10T22:31:06.808Z,10.43
2018-09-10T22:33:37.834Z,17.20
2018-09-10T22:36:09.368Z,16.13
2018-09-10T22:38:39.989Z,20.83
2018-09-10T22:41:10.658Z,21.30
2018-09-10T22:43:41.332Z,22.87
2018-09-10T22:46:12.050Z,20.63
2018-09-10T22:48:43.901Z,24.87
2018-09-10T22:51:14.635Z,21.20
2018-09-10T22:53:45.290Z,24.50
2018-09-10T22:56:15.974Z,26.90
2018-09-10T22:58:46.739Z,22.37
2018-09-10T23:01:17.416Z,21.27
2018-09-10T23:03:48.111Z,25.43
2018-09-10T23:06:18.801Z,24.10
2018-09-10T23:08:49.691Z,19.87
2018-09-10T23:11:21.124Z,18.27
2018-09-10T23:13:52.209Z,20.90
2018-09-10T23:16:23.011Z,18.57
2018-09-10T23:18:53.843Z,17.53
2018-09-10T23:21:25.701Z,16.00
2018-09-10T23:23:56.376Z,14.57
2018-09-10T23:26:27.053Z,17.13
2018-09-10T23:28:57.779Z,15.43
2018-09-10T23:31:28.456Z,18.07
2018-09-10T23:33:59.074Z,17.10
2018-09-10T23:36:29.804Z,17.27
2018-09-10T23:39:00.457Z,15.27
2018-09-10T23:41:31.729Z,17.43
2018-09-10T23:44:02.369Z,19.83
2018-09-10T23:46:33.057Z,23.23
2018-09-10T23:49:03.760Z,26.53
2018-09-10T23:51:34.794Z,30.13
2018-09-10T23:54:05.466Z,32.30
2018-09-10T23:56:36.151Z,24.67
2018-09-10T23:59:07.255Z,19.57
